Time;durP1;ratioP1;P1;durP2;ratioP2;P2;SDS_P1;SDS_P2;PMS_P1;PMS_P2;Temp;Humidity;BMP_temperature;BMP_pressure;BME280_temperature;BME280_humidity;BME280_pressure;Samples;Min_cycle;Max_cycle;Signal;HPM_P1;HPM_P2
2023/08/29 00:00:47;;;;;;;2.47;1.80;;;;;;;13.16;100.00;149408.16;5008292;28;20239;-65
2023/08/29 00:03:13;;;;;;;2.93;1.97;;;;;;;13.18;100.00;149413.16;5007838;28;20232;-65
2023/08/29 00:05:41;;;;;;;3.53;2.20;;;;;;;13.20;100.00;149416.88;5009340;28;20238;-65
2023/08/29 00:08:08;;;;;;;4.23;2.13;;;;;;;13.20;100.00;149418.16;5010371;28;20219;-65
2023/08/29 00:10:34;;;;;;;4.13;1.53;;;;;;;13.20;100.00;149418.16;5006596;28;20233;-65
2023/08/29 00:13:01;;;;;;;3.80;1.70;;;;;;;13.23;100.00;149424.38;5007872;28;20232;-65
2023/08/29 00:15:27;;;;;;;8.37;2.10;;;;;;;13.22;100.00;149421.88;5008643;28;20220;-65
2023/08/29 00:17:54;;;;;;;2.97;1.80;;;;;;;13.20;100.00;149416.88;5011536;28;20579;-65
2023/08/29 00:20:26;;;;;;;3.00;1.90;;;;;;;13.23;100.00;149425.63;5009650;28;20227;-65
2023/08/29 00:22:55;;;;;;;7.93;2.43;;;;;;;13.24;100.00;149426.88;5006292;28;20268;-65
2023/08/29 00:25:22;;;;;;;3.90;1.83;;;;;;;13.26;100.00;149433.09;5007828;28;20274;-65
2023/08/29 00:27:48;;;;;;;7.83;2.20;;;;;;;13.27;100.00;149434.34;5010490;28;20243;-65
2023/08/29 00:30:15;;;;;;;3.87;1.93;;;;;;;13.27;100.00;149434.34;4998693;28;20264;-65
2023/08/29 00:32:42;;;;;;;2.37;1.90;;;;;;;13.32;100.00;149446.81;4989785;28;20328;-65
2023/08/29 00:35:09;;;;;;;4.10;2.17;;;;;;;13.29;100.00;149439.34;4993169;28;20591;-65
2023/08/29 00:37:36;;;;;;;6.33;1.70;;;;;;;13.28;100.00;149436.84;4989949;28;20311;-65
2023/08/29 00:40:05;;;;;;;3.40;1.53;;;;;;;13.27;100.00;149434.34;5008959;28;20247;-65
2023/08/29 00:42:32;;;;;;;2.40;2.00;;;;;;;13.25;100.00;149429.38;5007200;28;20233;-65
2023/08/29 00:44:59;;;;;;;3.03;1.97;;;;;;;13.25;100.00;149430.59;4992526;28;20230;-65
2023/08/29 00:47:25;;;;;;;4.03;2.07;;;;;;;13.29;100.00;149439.34;5012140;28;20712;-65
2023/08/29 00:49:53;;;;;;;3.03;2.00;;;;;;;13.29;100.00;149439.34;5000762;28;20717;-65
2023/08/29 00:52:19;;;;;;;3.90;2.00;;;;;;;13.28;100.00;149438.06;4994968;28;20943;-65
2023/08/29 00:54:47;;;;;;;3.13;2.20;;;;;;;13.28;100.00;149436.84;5007925;28;20227;-65
2023/08/29 00:57:15;;;;;;;3.10;1.90;;;;;;;13.25;100.00;149429.38;5009232;28;20225;-65
2023/08/29 00:59:42;;;;;;;5.70;2.30;;;;;;;13.28;100.00;149436.84;4998652;28;20245;-65
2023/08/29 01:02:08;;;;;;;2.87;2.00;;;;;;;13.29;100.00;149439.34;4992160;28;20218;-65
2023/08/29 01:04:37;;;;;;;3.60;2.20;;;;;;;13.34;100.00;149451.81;4993734;28;20292;-65
2023/08/29 01:07:05;;;;;;;2.60;2.30;;;;;;;13.31;100.00;149444.34;5009772;28;20225;-65
2023/08/29 01:09:34;;;;;;;3.37;2.10;;;;;;;13.27;100.00;149435.56;5006493;28;20249;-65
2023/08/29 01:12:09;;;;;;;3.73;2.00;;;;;;;13.27;100.00;149434.34;5008669;28;20241;-65
2023/08/29 01:14:43;;;;;;;2.60;2.20;;;;;;;13.26;100.00;149431.84;4997527;28;20237;-65
2023/08/29 01:17:16;;;;;;;2.10;1.90;;;;;;;13.28;100.00;149438.06;4997827;28;20285;-65
2023/08/29 01:19:48;;;;;;;4.17;2.27;;;;;;;13.24;100.00;149426.88;5011692;28;20256;-65
2023/08/29 01:22:26;;;;;;;5.50;2.57;;;;;;;13.24;100.00;149426.88;4999317;28;20745;-65
2023/08/29 01:24:59;;;;;;;3.33;2.03;;;;;;;13.25;100.00;149430.59;5007931;28;20222;-65
2023/08/29 01:27:29;;;;;;;3.57;2.00;;;;;;;13.24;100.00;149428.13;5013474;28;20326;-65
2023/08/29 01:29:57;;;;;;;6.50;2.40;;;;;;;13.22;100.00;149421.88;5021214;28;20570;-65
2023/08/29 01:32:28;;;;;;;2.53;1.73;;;;;;;13.19;100.00;149414.38;5016178;28;20224;-65
2023/08/29 01:34:55;;;;;;;2.50;2.30;;;;;;;13.18;100.00;149411.88;5019542;28;20225;-65
2023/08/29 01:37:21;;;;;;;5.03;2.30;;;;;;;13.18;100.00;149413.16;5016074;28;20236;-65
2023/08/29 01:39:48;;;;;;;3.80;2.37;;;;;;;13.16;100.00;149408.16;5002189;28;20687;-65
2023/08/29 01:42:17;;;;;;;7.83;2.50;;;;;;;13.16;100.00;149406.91;5018554;28;20233;-65
2023/08/29 01:44:47;;;;;;;4.90;2.17;;;;;;;13.11;100.00;149396.91;5017011;28;20236;-65
2023/08/29 01:47:14;;;;;;;2.90;2.43;;;;;;;13.11;100.00;149395.69;5007907;28;20836;-65
2023/08/29 01:49:41;;;;;;;4.77;2.80;;;;;;;13.04;100.00;149379.44;4996074;28;20219;-65
2023/08/29 01:52:07;;;;;;;4.87;2.50;;;;;;;13.04;100.00;149378.22;5008008;28;20222;-65
2023/08/29 01:54:34;;;;;;;5.17;2.40;;;;;;;13.02;100.00;149374.47;5004259;28;20227;-64
2023/08/29 01:57:02;;;;;;;5.03;2.50;;;;;;;12.95;100.00;149358.28;5005627;28;20233;-64
2023/08/29 01:59:30;;;;;;;3.90;2.60;;;;;;;12.93;100.00;149352.00;5004668;28;20227;-65
2023/08/29 02:02:00;;;;;;;6.23;2.53;;;;;;;12.94;100.00;149354.50;5002407;28;20228;-64
2023/08/29 02:04:26;;;;;;;3.27;2.57;;;;;;;12.94;100.00;149354.50;5014301;28;20264;-65
2023/08/29 02:06:53;;;;;;;3.73;2.40;;;;;;;12.95;100.00;149358.28;5018601;28;20704;-65
2023/08/29 02:09:20;;;;;;;2.60;2.30;;;;;;;12.96;100.00;149360.75;5006929;28;20217;-65
2023/08/29 02:11:46;;;;;;;2.87;2.40;;;;;;;13.03;100.00;149375.72;5020109;28;20248;-65
2023/08/29 02:14:13;;;;;;;4.53;2.60;;;;;;;13.04;100.00;149378.22;5001877;28;20448;-65
2023/08/29 02:16:40;;;;;;;4.10;2.43;;;;;;;13.02;100.00;149374.47;5003973;28;20230;-65
2023/08/29 02:19:14;;;;;;;3.00;2.57;;;;;;;13.06;100.00;149383.22;5006203;28;20225;-65
2023/08/29 02:21:43;;;;;;;7.00;2.30;;;;;;;13.05;100.00;149381.94;5000021;28;20311;-65
2023/08/29 02:24:10;;;;;;;2.67;2.40;;;;;;;13.05;100.00;149380.72;5000891;28;20237;-65
2023/08/29 02:26:36;;;;;;;4.50;2.73;;;;;;;13.01;100.00;149371.97;5020103;28;20270;-65
2023/08/29 02:29:06;;;;;;;3.07;2.20;;;;;;;12.97;100.00;149363.25;5004491;28;20228;-65
2023/08/29 02:31:32;;;;;;;5.27;2.90;;;;;;;12.89;100.00;149343.31;5002366;28;20691;-65
2023/08/29 02:33:59;;;;;;;3.07;2.60;;;;;;;12.82;100.00;149327.06;5017798;28;20222;-65
2023/08/29 02:36:30;;;;;;;5.63;2.80;;;;;;;12.80;100.00;149320.84;5020125;28;20699;-65
2023/08/29 02:38:57;;;;;;;4.60;2.80;;;;;;;12.78;100.00;149315.84;5001274;28;20215;-65
2023/08/29 02:41:24;;;;;;;3.03;2.70;;;;;;;12.71;100.00;149299.66;5014933;28;20250;-65
2023/08/29 02:43:50;;;;;;;3.70;2.40;;;;;;;12.70;100.00;149297.16;5019806;28;20239;-65
2023/08/29 02:46:17;;;;;;;4.00;2.60;;;;;;;12.69;100.00;149295.91;5007153;28;21171;-64
2023/08/29 02:48:44;;;;;;;6.53;2.53;;;;;;;12.63;100.00;149280.94;5004842;28;20228;-64
2023/08/29 02:51:11;;;;;;;9.17;3.27;;;;;;;12.62;100.00;149277.22;5000349;28;20699;-64
2023/08/29 02:53:39;;;;;;;3.10;2.50;;;;;;;12.68;100.00;149292.19;4999484;28;20247;-64
2023/08/29 02:56:06;;;;;;;3.97;2.83;;;;;;;12.65;100.00;149285.91;5004513;28;20232;-64
2023/08/29 02:58:32;;;;;;;2.97;2.53;;;;;;;12.62;100.00;149278.44;5012424;28;20242;-64
2023/08/29 03:00:59;;;;;;;3.20;2.90;;;;;;;12.59;100.00;149269.72;5017005;28;20232;-64
2023/08/29 03:03:26;;;;;;;3.27;2.97;;;;;;;12.59;100.00;149269.72;5003980;28;20274;-64
2023/08/29 03:05:56;;;;;;;3.17;2.90;;;;;;;12.59;100.00;149270.97;5024249;28;20575;-64
2023/08/29 03:08:23;;;;;;;6.53;3.27;;;;;;;12.57;100.00;149265.97;4998454;28;20228;-64
2023/08/29 03:10:51;;;;;;;3.97;3.13;;;;;;;12.54;100.00;149259.75;5007661;28;20251;-64
2023/08/29 03:13:18;;;;;;;3.13;2.83;;;;;;;12.48;100.00;149244.78;5005906;28;20225;-64
2023/08/29 03:15:45;;;;;;;3.40;3.07;;;;;;;12.46;100.00;149239.81;5015568;28;20309;-64
2023/08/29 03:18:12;;;;;;;7.03;3.07;;;;;;;12.43;100.00;149232.31;5000343;28;20219;-64
2023/08/29 03:20:41;;;;;;;4.37;2.90;;;;;;;12.43;100.00;149231.06;4997203;28;20259;-64
2023/08/29 03:23:10;;;;;;;5.90;3.07;;;;;;;12.39;100.00;149222.34;5016351;28;20245;-64
2023/08/29 03:25:37;;;;;;;4.27;2.90;;;;;;;12.35;100.00;149212.38;5017940;28;20223;-64
2023/08/29 03:28:06;;;;;;;5.47;3.23;;;;;;;12.32;100.00;149206.09;4999673;28;20227;-64
2023/08/29 03:33:23;;;;;;;6.20;3.00;;;;;;;12.27;100.00;149193.63;4936642;29;20230;-64
2023/08/29 03:35:58;;;;;;;3.97;3.03;;;;;;;12.24;100.00;149186.16;4927219;29;20590;-64
2023/08/29 03:38:25;;;;;;;5.03;3.40;;;;;;;12.23;100.00;149184.94;4946637;28;20567;-64
2023/08/29 03:40:56;;;;;;;7.17;3.97;;;;;;;12.23;100.00;149183.66;4940561;28;20225;-64
2023/08/29 03:43:26;;;;;;;3.87;2.93;;;;;;;12.24;100.00;149186.16;4941436;29;20225;-64
2023/08/29 03:45:57;;;;;;;6.63;3.40;;;;;;;12.20;100.00;149176.19;4941576;28;20238;-64
2023/08/29 03:48:24;;;;;;;7.27;2.97;;;;;;;12.20;100.00;149176.19;4938943;29;20320;-64
2023/08/29 03:50:51;;;;;;;7.50;3.60;;;;;;;12.18;100.00;149171.25;4942522;28;20316;-64
2023/08/29 03:53:18;;;;;;;4.77;3.30;;;;;;;12.20;100.00;149176.19;4928770;28;20639;-64
2023/08/29 03:55:45;;;;;;;7.17;3.13;;;;;;;12.25;100.00;149189.91;4935372;28;20308;-64
2023/08/29 03:58:12;;;;;;;4.23;3.50;;;;;;;12.28;100.00;149196.13;4961424;28;20229;-64
2023/08/29 04:00:40;;;;;;;6.83;3.77;;;;;;;12.34;100.00;149209.88;4936638;28;20239;-64
2023/08/29 04:03:07;;;;;;;4.87;3.30;;;;;;;12.34;100.00;149209.88;4929205;28;20240;-64
2023/08/29 04:05:36;;;;;;;6.57;3.70;;;;;;;12.39;100.00;149223.56;4924556;28;20238;-65
2023/08/29 04:08:04;;;;;;;6.03;3.63;;;;;;;12.42;100.00;149229.81;4926740;29;20246;-65
2023/08/29 04:10:36;;;;;;;4.17;3.77;;;;;;;12.44;100.00;149233.53;4938682;29;20297;-65
2023/08/29 04:13:03;;;;;;;5.53;4.60;;;;;;;12.47;100.00;149241.03;4941841;29;20303;-65
2023/08/29 04:15:30;;;;;;;4.07;3.43;;;;;;;12.49;100.00;149247.28;4922117;28;20250;-65
2023/08/29 04:17:58;;;;;;;7.20;3.50;;;;;;;12.48;100.00;149243.53;4926496;29;20636;-65
2023/08/29 04:20:25;;;;;;;5.47;3.47;;;;;;;12.49;100.00;149246.00;4923913;28;20228;-65
2023/08/29 04:22:52;;;;;;;3.67;2.87;;;;;;;12.50;100.00;149248.50;4928643;29;20242;-65
2023/08/29 04:25:19;;;;;;;3.70;3.27;;;;;;;12.49;100.00;149247.28;4927098;29;20284;-65
2023/08/29 04:27:46;;;;;;;8.10;3.70;;;;;;;12.50;100.00;149249.78;4922610;29;20240;-65
2023/08/29 04:30:13;;;;;;;8.63;3.10;;;;;;;12.53;100.00;149256.00;4943593;29;20561;-65
2023/08/29 04:32:40;;;;;;;7.87;3.20;;;;;;;12.56;100.00;149263.47;4939591;28;20230;-65
2023/08/29 04:35:10;;;;;;;7.97;3.27;;;;;;;12.55;100.00;149262.25;4940973;29;20259;-65
2023/08/29 04:37:37;;;;;;;4.40;3.13;;;;;;;12.57;100.00;149264.75;4938827;29;20233;-65
2023/08/29 04:40:06;;;;;;;9.57;3.43;;;;;;;12.59;100.00;149269.72;4925896;29;20234;-65
2023/08/29 04:42:33;;;;;;;4.23;2.90;;;;;;;12.58;100.00;149268.47;4955752;28;20301;-65
2023/08/29 04:45:03;;;;;;;5.87;3.37;;;;;;;12.54;100.00;149259.75;4927490;29;20254;-65
2023/08/29 04:47:30;;;;;;;6.13;3.30;;;;;;;12.61;100.00;149274.72;4931863;28;20232;-65
2023/08/29 04:49:57;;;;;;;5.37;3.23;;;;;;;12.63;100.00;149279.72;4940103;29;20710;-65
2023/08/29 04:52:26;;;;;;;5.90;3.33;;;;;;;12.60;100.00;149273.44;4936494;28;20257;-65
2023/08/29 04:54:52;;;;;;;3.60;3.30;;;;;;;12.55;100.00;149262.25;4926174;29;20662;-65
2023/08/29 04:57:19;;;;;;;3.70;3.30;;;;;;;12.53;100.00;149257.25;4942215;29;20235;-65
2023/08/29 04:59:45;;;;;;;6.17;3.47;;;;;;;12.52;100.00;149254.75;4935529;29;20709;-65
2023/08/29 05:02:12;;;;;;;6.17;3.43;;;;;;;12.49;100.00;149247.28;4928249;29;20238;-65
2023/08/29 05:04:39;;;;;;;3.83;3.53;;;;;;;12.48;100.00;149243.53;4921601;28;20337;-65
2023/08/29 05:07:05;;;;;;;3.60;3.30;;;;;;;12.44;100.00;149234.81;4924483;29;20230;-65
2023/08/29 05:09:34;;;;;;;5.17;3.70;;;;;;;12.46;100.00;149238.53;4925174;28;20324;-65
2023/08/29 05:12:01;;;;;;;9.50;3.57;;;;;;;12.45;100.00;149236.03;4942459;28;20237;-65
2023/08/29 05:14:27;;;;;;;6.80;3.40;;;;;;;12.50;100.00;149249.78;4924204;28;20257;-65
2023/08/29 05:16:54;;;;;;;4.63;3.23;;;;;;;12.54;100.00;149259.75;4928518;29;20236;-65
2023/08/29 05:19:21;;;;;;;5.50;3.40;;;;;;;12.55;100.00;149262.25;4919323;29;20233;-65
2023/08/29 05:21:47;;;;;;;5.40;3.67;;;;;;;12.53;100.00;149257.25;4924113;29;20645;-65
2023/08/29 05:24:14;;;;;;;4.40;3.43;;;;;;;12.58;100.00;149268.47;4942431;29;20640;-65
2023/08/29 05:26:44;;;;;;;5.70;3.60;;;;;;;12.60;100.00;149272.22;4939757;29;20229;-65
2023/08/29 05:29:11;;;;;;;3.87;3.50;;;;;;;12.64;100.00;149282.22;4944225;29;20230;-65
2023/08/29 05:31:38;;;;;;;7.83;3.80;;;;;;;12.69;100.00;149294.69;4939712;28;20234;-65
2023/08/29 05:34:05;;;;;;;4.20;3.43;;;;;;;12.73;100.00;149303.38;4944393;29;20241;-65
2023/08/29 05:36:32;;;;;;;3.80;3.43;;;;;;;12.80;100.00;149320.84;4939657;29;20312;-65
2023/08/29 05:38:58;;;;;;;7.57;4.13;;;;;;;12.83;100.00;149329.56;4939848;29;20269;-65
2023/08/29 05:41:25;;;;;;;7.27;3.90;;;;;;;12.90;100.00;149345.78;4939785;28;20229;-65
2023/08/29 05:43:53;;;;;;;4.90;3.97;;;;;;;13.01;100.00;149371.97;4943761;29;20752;-65
2023/08/29 05:46:19;;;;;;;6.10;4.20;;;;;;;13.07;100.00;149386.94;4944228;29;20289;-65
2023/08/29 05:48:46;;;;;;;5.97;5.13;;;;;;;13.09;100.00;149391.94;4939195;29;20242;-65
2023/08/29 05:51:13;;;;;;;6.20;5.17;;;;;;;13.08;100.00;149388.22;4942158;28;20230;-65
2023/08/29 05:53:40;;;;;;;9.17;5.50;;;;;;;13.19;100.00;149415.66;4938717;29;20226;-65
2023/08/29 05:56:06;;;;;;;9.23;6.23;;;;;;;13.19;100.00;149414.38;4941910;29;20233;-65
2023/08/29 05:58:33;;;;;;;12.87;7.50;;;;;;;13.26;100.00;149431.84;4942639;28;20234;-65
2023/08/29 06:01:01;;;;;;;9.60;6.40;;;;;;;13.25;100.00;149429.38;4947278;28;20234;-65
2023/08/29 06:03:27;;;;;;;8.13;5.93;;;;;;;13.32;100.00;149445.56;4943463;28;20231;-65
2023/08/29 06:05:54;;;;;;;8.73;6.10;;;;;;;13.36;100.00;149455.53;4928041;29;20701;-65
2023/08/29 06:08:21;;;;;;;11.40;6.80;;;;;;;13.43;100.00;149474.31;4930771;29;20729;-65
2023/08/29 06:10:47;;;;;;;11.97;8.03;;;;;;;13.47;100.00;149481.81;4946143;28;20237;-65
2023/08/29 06:13:14;;;;;;;6.80;5.93;;;;;;;13.53;100.00;149498.00;4946498;29;20623;-65
2023/08/29 06:15:41;;;;;;;7.63;6.40;;;;;;;13.62;100.00;149517.97;4945022;29;20716;-65
2023/08/29 06:18:09;;;;;;;11.13;7.27;;;;;;;13.60;100.00;149514.25;4946289;29;20231;-65
2023/08/29 06:20:36;;;;;;;8.63;7.53;;;;;;;13.58;100.00;149509.28;4945282;29;20234;-65
2023/08/29 06:23:03;;;;;;;11.33;8.10;;;;;;;13.58;100.00;149510.50;4946460;29;20265;-65
2023/08/29 06:25:29;;;;;;;11.90;9.17;;;;;;;13.63;100.00;149521.75;4943263;29;20235;-65
2023/08/29 06:27:56;;;;;;;9.80;8.77;;;;;;;13.64;100.00;149524.25;4947863;29;20226;-65
2023/08/29 06:30:22;;;;;;;9.10;8.00;;;;;;;13.72;100.00;149542.94;4947538;29;20228;-65
2023/08/29 06:32:50;;;;;;;10.90;9.10;;;;;;;13.77;100.00;149554.19;4946044;28;20248;-65
2023/08/29 06:35:18;;;;;;;16.07;9.17;;;;;;;13.80;100.00;149562.91;4947674;29;20298;-65
2023/08/29 06:37:45;;;;;;;13.93;10.20;;;;;;;13.78;100.00;149556.69;4944659;29;20775;-65
2023/08/29 06:40:12;;;;;;;14.90;10.13;;;;;;;13.88;100.00;149582.88;4946481;29;20319;-65
2023/08/29 06:42:39;;;;;;;14.27;9.67;;;;;;;13.92;100.00;149591.59;4940627;28;20230;-65
2023/08/29 06:45:07;;;;;;;12.70;10.07;;;;;;;13.95;100.00;149597.88;4945287;29;20699;-65
2023/08/29 06:47:33;;;;;;;12.77;10.60;;;;;;;14.05;100.00;149622.81;4941925;28;20235;-65
2023/08/29 06:50:00;;;;;;;11.40;9.70;;;;;;;14.17;100.00;149652.78;4928306;29;20746;-65
2023/08/29 06:52:28;;;;;;;10.53;9.53;;;;;;;14.23;100.00;149666.50;4942166;29;20222;-65
2023/08/29 06:54:55;;;;;;;13.53;10.27;;;;;;;14.28;100.00;149679.00;4940423;29;20233;-65
2023/08/29 06:57:21;;;;;;;14.03;10.77;;;;;;;14.37;100.00;149700.19;4943784;29;20255;-65
2023/08/29 06:59:48;;;;;;;13.63;9.90;;;;;;;14.45;100.00;149720.16;4943622;29;20817;-65
2023/08/29 07:02:14;;;;;;;11.37;10.10;;;;;;;14.54;100.00;149741.41;4942735;28;20231;-65
2023/08/29 07:04:41;;;;;;;11.27;8.77;;;;;;;14.53;100.00;149737.66;4942182;29;20242;-65
2023/08/29 07:07:08;;;;;;;12.40;9.47;;;;;;;14.58;100.00;149750.13;4945231;29;20253;-65
2023/08/29 07:09:36;;;;;;;10.07;8.97;;;;;;;14.61;100.00;149758.91;4942270;29;20298;-65
2023/08/29 07:12:02;;;;;;;10.13;9.03;;;;;;;14.75;100.00;149791.41;4943915;28;20628;-65
2023/08/29 07:14:30;;;;;;;12.43;9.65;;;;;;;14.86;100.00;149818.84;4937870;29;20445;-65
2023/08/29 07:16:56;;;;;;;10.93;9.37;;;;;;;14.85;100.00;149816.34;4943637;29;20707;-66
2023/08/29 07:19:23;;;;;;;12.37;9.43;;;;;;;15.04;100.00;149861.31;4944335;29;20379;-65
2023/08/29 07:21:49;;;;;;;11.37;9.73;;;;;;;14.98;100.00;149846.31;4944758;28;20259;-65
2023/08/29 07:24:16;;;;;;;10.77;9.60;;;;;;;15.02;100.00;149856.31;4942044;29;20243;-65
2023/08/29 07:26:44;;;;;;;14.33;10.10;;;;;;;15.13;100.00;149883.81;4939353;29;21773;-64
2023/08/29 07:29:10;;;;;;;13.03;9.80;;;;;;;15.28;100.00;149918.78;4944357;29;20753;-64
2023/08/29 07:31:37;;;;;;;14.27;9.80;;;;;;;15.25;100.00;149911.28;4940203;28;20236;-64
2023/08/29 07:34:04;;;;;;;15.43;9.40;;;;;;;15.28;100.00;149920.06;4944294;29;20246;-64
2023/08/29 07:36:32;;;;;;;11.27;8.73;;;;;;;15.43;100.00;149956.25;4943380;28;20231;-64
2023/08/29 07:38:58;;;;;;;14.13;10.20;;;;;;;15.17;100.00;149892.56;4944657;29;20775;-65
2023/08/29 07:41:25;;;;;;;14.30;10.40;;;;;;;15.23;100.00;149906.28;4941542;28;20236;-65
2023/08/29 07:43:53;;;;;;;12.33;9.33;;;;;;;15.22;100.00;149905.06;4943754;28;20241;-65
2023/08/29 07:46:19;;;;;;;10.90;9.10;;;;;;;15.26;100.00;149913.78;4944527;29;20277;-65
2023/08/29 07:48:46;;;;;;;10.37;9.23;;;;;;;15.35;100.00;149936.25;4943657;29;20242;-65
2023/08/29 07:51:13;;;;;;;13.40;10.93;;;;;;;15.25;100.00;149911.28;4947245;28;20250;-65
2023/08/29 07:53:39;;;;;;;14.67;10.20;;;;;;;15.24;100.00;149910.06;4944216;29;20239;-65
2023/08/29 07:56:06;;;;;;;13.47;10.87;;;;;;;15.08;100.00;149871.31;4944940;29;20238;-65
2023/08/29 07:58:33;;;;;;;13.93;10.03;;;;;;;14.99;100.00;149850.09;4943234;29;20237;-65
2023/08/29 08:01:01;;;;;;;14.97;10.43;;;;;;;15.09;100.00;149872.59;4944654;28;20617;-65
2023/08/29 08:03:28;;;;;;;13.20;9.90;;;;;;;15.11;100.00;149877.56;4941280;29;20628;-65
2023/08/29 08:05:55;;;;;;;12.33;9.87;;;;;;;15.03;100.00;149860.09;4943175;29;20238;-65
2023/08/29 08:08:21;;;;;;;12.03;9.00;;;;;;;15.01;100.00;149853.81;4943324;29;20236;-65
2023/08/29 08:10:48;;;;;;;14.93;10.77;;;;;;;14.94;100.00;149837.59;4941098;28;20234;-65
2023/08/29 08:13:15;;;;;;;15.60;11.23;;;;;;;14.85;100.00;149816.34;4944487;29;20567;-65
2023/08/29 08:15:41;;;;;;;12.80;10.43;;;;;;;14.83;100.00;149811.41;4941127;29;20250;-65
2023/08/29 08:18:09;;;;;;;12.10;9.97;;;;;;;14.90;100.00;149828.84;4944210;29;20356;-65
2023/08/29 08:20:36;;;;;;;13.33;10.07;;;;;;;14.99;100.00;149850.09;4943039;28;20216;-64
2023/08/29 08:23:03;;;;;;;14.13;10.77;;;;;;;15.01;100.00;149853.81;4943782;28;20239;-64
2023/08/29 08:25:29;;;;;;;12.43;9.60;;;;;;;15.14;100.00;149885.06;4942146;28;20243;-64
2023/08/29 08:27:56;;;;;;;12.13;10.40;;;;;;;15.20;100.00;149900.06;4940113;29;20225;-64
2023/08/29 08:30:23;;;;;;;14.87;11.37;;;;;;;15.23;100.00;149906.28;4941535;28;20263;-64
2023/08/29 08:32:49;;;;;;;13.53;10.03;;;;;;;15.33;100.00;149931.28;4943237;28;20236;-64
2023/08/29 08:35:18;;;;;;;11.03;9.67;;;;;;;15.36;100.00;149938.78;4940351;28;20591;-64
2023/08/29 08:37:44;;;;;;;12.13;9.57;;;;;;;15.33;100.00;149931.28;4943455;29;20239;-64
2023/08/29 08:40:12;;;;;;;10.80;9.70;;;;;;;15.22;100.00;149903.78;4943552;28;20226;-64
2023/08/29 08:42:44;;;;;;;11.93;9.83;;;;;;;15.20;100.00;149901.28;4940177;28;20259;-64
2023/08/29 08:45:11;;;;;;;14.63;11.27;;;;;;;15.17;100.00;149892.56;4943974;29;20673;-65
2023/08/29 08:47:38;;;;;;;13.83;10.00;;;;;;;15.45;100.00;149959.97;4937882;29;20235;-65
2023/08/29 08:50:08;;;;;;;13.57;9.70;;;;;;;15.77;100.00;150037.47;4945782;29;20239;-65
2023/08/29 08:52:37;;;;;;;12.60;9.90;;;;;;;15.98;100.00;150087.50;4939206;28;20787;-65
2023/08/29 08:55:05;;;;;;;11.67;9.17;;;;;;;16.32;100.00;150170.00;4942679;29;20240;-65
2023/08/29 08:57:32;;;;;;;9.50;8.50;;;;;;;16.70;100.00;150261.22;4939803;29;21243;-65
2023/08/29 08:59:59;;;;;;;13.47;9.83;;;;;;;16.87;99.50;150302.47;4942251;29;20245;-65
2023/08/29 09:02:25;;;;;;;13.13;10.10;;;;;;;16.99;100.00;150331.25;4937327;28;20245;-65
2023/08/29 09:04:53;;;;;;;13.33;10.23;;;;;;;17.17;97.36;150376.28;4943454;29;20226;-65
2023/08/29 09:07:20;;;;;;;12.93;9.03;;;;;;;17.51;97.50;150458.84;4944593;29;20234;-65
2023/08/29 09:10:07;;;;;;;12.07;9.67;;;;;;;17.37;92.92;150423.81;4941117;29;20253;-65
2023/08/29 09:12:34;;;;;;;11.43;8.93;;;;;;;17.46;91.68;150445.09;4935081;28;20595;-64
2023/08/29 09:15:03;;;;;;;9.20;7.83;;;;;;;17.42;94.17;150436.31;4940199;29;20229;-64
2023/08/29 09:17:30;;;;;;;9.40;8.30;;;;;;;17.61;93.60;150482.59;4938006;29;20218;-64
2023/08/29 09:19:59;;;;;;;9.73;8.73;;;;;;;17.65;92.27;150491.38;4943713;29;20231;-64
2023/08/29 09:22:26;;;;;;;10.33;8.00;;;;;;;17.54;89.20;150465.06;4941257;28;20344;-64
2023/08/29 09:25:03;;;;;;;10.73;7.73;;;;;;;18.01;90.30;150579.00;4942733;29;20237;-64
2023/08/29 09:27:30;;;;;;;11.23;7.80;;;;;;;18.02;88.72;150581.44;4939421;29;20220;-64
2023/08/29 09:30:07;;;;;;;11.20;8.13;;;;;;;17.90;90.54;150552.66;4944553;29;20223;-64
2023/08/29 09:32:34;;;;;;;10.93;8.30;;;;;;;18.10;88.76;150600.25;4932424;28;20226;-64
2023/08/29 09:35:00;;;;;;;10.50;8.40;;;;;;;18.24;88.73;150634.00;4943854;28;20239;-64
2023/08/29 09:37:27;;;;;;;9.67;7.37;;;;;;;18.38;92.83;150669.06;4945495;28;20230;-65
2023/08/29 09:39:55;;;;;;;7.80;6.97;;;;;;;18.63;89.25;150729.13;4948794;29;20224;-65
2023/08/29 09:42:22;;;;;;;9.33;7.90;;;;;;;18.43;84.73;150680.34;4946266;28;20246;-65
2023/08/29 09:44:50;;;;;;;10.73;8.40;;;;;;;18.00;87.64;150576.50;4979040;23;20236;-62
2023/08/29 09:47:23;;;;;;;9.97;7.70;;;;;;;18.46;85.13;150687.84;5019426;28;20571;-63
2023/08/29 09:49:49;;;;;;;9.00;8.07;;;;;;;18.01;84.89;150579.00;5015763;28;20592;-63
2023/08/29 09:52:18;;;;;;;8.03;7.33;;;;;;;18.27;85.38;150641.50;5020900;28;20638;-62
2023/08/29 09:54:45;;;;;;;9.17;6.90;;;;;;;18.54;85.89;150706.59;5015316;28;20864;-62
2023/08/29 09:57:15;;;;;;;8.60;7.70;;;;;;;18.68;84.67;150741.66;5022610;28;20758;-63
2023/08/29 09:59:43;;;;;;;9.63;6.77;;;;;;;18.95;79.78;150806.75;5016298;28;20238;-63
2023/08/29 10:02:12;;;;;;;8.77;6.00;;;;;;;18.91;77.25;150795.47;5019733;28;20236;-63
2023/08/29 10:04:43;;;;;;;6.33;5.37;;;;;;;19.22;78.45;150870.63;5019317;28;20243;-63
2023/08/29 10:07:14;;;;;;;6.47;5.70;;;;;;;19.37;73.08;150906.94;5018942;28;20236;-63
2023/08/29 10:09:43;;;;;;;9.93;6.43;;;;;;;19.32;72.95;150895.69;5015916;28;20230;-63
2023/08/29 10:12:10;;;;;;;8.80;5.60;;;;;;;19.16;73.69;150858.13;5017946;28;20314;-63
2023/08/29 10:14:38;;;;;;;7.43;5.30;;;;;;;19.38;74.86;150909.44;5014031;28;20216;-63
2023/08/29 10:17:06;;;;;;;6.00;4.93;;;;;;;19.74;74.08;150998.31;5017776;28;20236;-64
2023/08/29 10:19:34;;;;;;;5.20;4.70;;;;;;;19.91;76.93;151039.75;5015179;28;20231;-64
2023/08/29 10:22:01;;;;;;;6.23;4.60;;;;;;;20.24;75.79;151118.63;5020254;28;20598;-64
2023/08/29 10:24:29;;;;;;;4.43;4.03;;;;;;;20.40;77.38;151156.22;5017757;28;20238;-63
2023/08/29 10:26:56;;;;;;;4.33;3.83;;;;;;;20.67;72.57;151221.38;5019474;28;20327;-63
2023/08/29 10:29:23;;;;;;;7.73;4.70;;;;;;;20.65;73.07;151218.88;5018504;28;20265;-63
2023/08/29 10:31:51;;;;;;;6.83;5.63;;;;;;;20.20;67.03;151109.84;5013991;28;20683;-63
2023/08/29 10:34:19;;;;;;;4.80;4.33;;;;;;;20.88;63.79;151272.78;5016227;28;20593;-63
2023/08/29 10:36:46;;;;;;;5.43;4.93;;;;;;;20.27;65.08;151126.16;5017589;28;20370;-63
2023/08/29 10:39:15;;;;;;;5.27;4.77;;;;;;;20.25;65.02;151119.88;5018260;28;20242;-63
2023/08/29 10:41:45;;;;;;;5.53;5.03;;;;;;;20.32;64.18;151137.41;5015299;28;20237;-63
2023/08/29 10:44:36;;;;;;;5.93;4.70;;;;;;;20.39;64.74;151154.94;5017349;28;20483;-64
2023/08/29 10:47:23;;;;;;;6.70;5.03;;;;;;;20.43;66.77;151164.97;5014053;28;20799;-63
2023/08/29 10:49:57;;;;;;;4.40;3.63;;;;;;;20.99;64.60;151299.09;5016694;28;20233;-63
2023/08/29 10:52:23;;;;;;;6.90;4.23;;;;;;;20.85;63.42;151265.28;5017091;28;20229;-64
2023/08/29 10:55:03;;;;;;;5.43;4.37;;;;;;;20.94;62.34;151287.84;5019909;28;20244;-63
2023/08/29 10:57:30;;;;;;;5.20;3.90;;;;;;;20.98;63.95;151297.88;5013627;28;20293;-64
2023/08/29 10:59:57;;;;;;;7.07;3.67;;;;;;;20.93;65.43;151286.56;5018886;28;20241;-64
2023/08/29 11:02:27;;;;;;;6.67;5.13;;;;;;;20.74;63.27;151238.88;5014868;28;20221;-63
2023/08/29 11:05:11;;;;;;;5.73;5.00;;;;;;;20.52;64.60;151186.31;5017356;28;20221;-63
2023/08/29 11:07:38;;;;;;;5.63;4.70;;;;;;;21.15;63.76;151337.97;5015704;28;20230;-64
2023/08/29 11:10:20;;;;;;;5.53;4.97;;;;;;;21.01;61.79;151304.09;5018067;28;20571;-64
2023/08/29 11:13:06;;;;;;;6.37;4.97;;;;;;;20.42;63.09;151162.47;5016395;28;20256;-63
2023/08/29 11:16:08;;;;;;;5.77;4.80;;;;;;;20.97;60.20;151294.09;5012413;28;20287;-63
2023/08/29 11:18:36;;;;;;;6.97;4.87;;;;;;;20.92;61.82;151282.81;5016443;28;20260;-63
2023/08/29 11:21:07;;;;;;;5.23;4.47;;;;;;;20.75;62.27;151242.69;5017548;28;20225;-63
2023/08/29 11:23:38;;;;;;;5.70;4.10;;;;;;;20.97;62.46;151295.38;5014800;28;20236;-64